VSF Airport (Hartness State (Springfield)) Information

FAA: VSF - ICAO: KVSF

VSF Airport Location

State Vermont
County Windsor
City Springfield
VSF Airport is 3 miles northwest of Springfield, VT.
Latitude 43-20-37.4000N
Longitude 072-31-02.2000W
Elevation 577ft

KVSF Airport METARs

METAR KVSF 182254Z AUTO 27005KT 10SM BKN050 09/03 A2983 RMK AO2 SLP107 T00890033
Altimeter 29.83"
Temperature 8.9°C (48.0°F)
Wind 270° at 5KT
Clouds broken at 5,000ft
Visibility 10.0mi
Time observed: 2021-10-18T22:54:00Z

VSF Airport Details

Status Operational
Activation October 1937
Ownership Public
Usage Public
Chart NEW YORK
ATC on-site No
Beacon schedule sunset-sunrise
Beacon color clear green

VSF Airport Contacts

Owner STATE OF VERMONT; GUY ROUELLE
Owner address RUTLAND SVR AIRPORT, 1002 AIRPORT ROAD, NO CLARENDON, VT 05759-5001
Owner phone (802) 786-8881
Manager YON PERRAS
Manager address 652 EARL GREY RD, MORRISVILLE, VT 05661
Manager phone 510-393-5394

VSF Airport (Hartness State (Springfield)) Radio Frequencies

VSF (Airport) Radio Frequencies

UNICOM 122.8
Common traffic advisory frequency (CTAF) 122.8